Historyczne dane pomiarowe

Dodano dane terminowe – wersja testowa.

Dane z okresu 1951-2019

Wersja bazy: 1.34 [2019-03-16, lista zmian], aktualizacja planowana na 2019-04-15

Dane meteo z obszaru Polski uzyskane na podstawie danych udostępnionych przez Instytut Meteorologii i Gospodarki Wodnej – Państwowy Instytut Badawczy.

 

Wybierz Datę:    

       

TemperaturaWilgotnośćZachmurzenieWiatrCiśnienieWidzialnośćZjawiska
 Data    tng td wb rh cc ccl cl cm ch dir g1 g2 mslp ppp      
1999-08-13 00:00:00 13.9--- 7.7 10.666wxwxwx2wx--1015.5 992.5 0.0---wx
1999-08-13 01:00:00 14.1--- 7.9 10.866wxwxwx1wx--1015.5 992.5----wx
1999-08-13 02:00:00 13.9--- 7.3 10.464wxwxwx2wx--1015.3 992.3----wx
1999-08-13 03:00:00 13.9--- 7.5 10.565wxwxwx2wx--1015.1 992.1----wx
1999-08-13 04:00:00 13.3--- 7.9 10.470wxwxwxwx2wx--1014.9 991.9----wx
1999-08-13 05:00:00 13.1--- 8.7 10.774wxwxwxwx2wx--1015.0 992.0----wx
1999-08-13 06:00:00 13.1--- 8.9 10.875wxwxwxwx2wx--1015.2 992.2 0.0---wx
1999-08-13 07:00:00 13.2--- 9.6 11.279wxwxwxwx3wx--1015.4 992.4----wx
1999-08-13 08:00:00 15.1--- 10.1 12.372wxwxwxwx3wx--1015.1 992.2----wx
1999-08-13 09:00:00 14.6--- 10.1 12.175wxwxwxwx4wx--1015.3 992.4----wx
1999-08-13 10:00:00 15.9--- 9.4 12.365wxwxwxwxwx3wx--1014.9 992.1----wx
1999-08-13 11:00:00 14.8--- 9.8 12.072wxwxwx4wx--1015.0 992.1----wx
1999-08-13 12:00:00 17.2--- 9.3 12.860wxwxwxwx2wx--1014.3 991.6 0.0---wxw1
1999-08-13 13:00:00 19.5--- 6.2 12.442wxwxwxwx4wx--1013.8 991.3----wx
1999-08-13 14:00:00 19.3--- 5.5 12.040wxwxwxwx4wx--1013.7 991.2----wx
1999-08-13 15:00:00 19.4--- 4.5 11.738wxwxwx5wx--1013.6 991.1----wx
1999-08-13 16:00:00 18.5--- 5.3 11.642wxwxwx3wx--1013.7 991.1----wx
1999-08-13 17:00:00 18.4--- 5.2 11.542wxwxwxwx3wx--1013.4 990.8----wx
1999-08-13 18:00:00 18.0--- 5.1 11.343wxwxwxwx2wx--1013.3 990.7 0.0---wx
1999-08-13 19:00:00 16.5--- 6.9 11.453wxwxwxwx1wx--1013.8 991.1----wx
1999-08-13 20:00:00 15.2--- 7.5 11.160wxwxwxwx0wx--1014.0 991.2----wx
1999-08-13 21:00:00 14.1--- 7.9 10.866wxwxwx1wx--1014.3 991.4----wx
1999-08-13 22:00:00 13.8--- 7.6 10.566wxwx1wx--1014.4 991.4----wx
1999-08-13 23:00:00 13.5--- 6.3 9.862wxwx2wx--1014.3 991.3----wx

 

Źródłem pochodzenia danych jest Instytut Meteorologii i Gospodarki Wodnej – Państwowy Instytut Badawczy. Dane Instytutu Meteorologii i Gospodarki Wodnej – Państwowego Instytutu Badawczego zostały przetworzone.

Dane źródłowe można odnaleźć na stronie https://dane.imgw.pl